createdAt,value
2023-02-06T00:00:11.180Z,5.65
2023-02-06T00:00:45.656Z,6.50
2023-02-06T00:01:18.278Z,6.30
2023-02-06T00:01:51.241Z,6.50
2023-02-06T00:02:23.967Z,5.70
2023-02-06T00:02:56.316Z,6.20
2023-02-06T00:03:29.166Z,6.53
2023-02-06T00:04:01.577Z,6.72
2023-02-06T00:04:33.820Z,6.60
2023-02-06T00:05:06.355Z,6.07
2023-02-06T00:05:38.620Z,5.60
2023-02-06T00:06:11.127Z,6.50
2023-02-06T00:06:43.808Z,7.05
2023-02-06T00:07:16.362Z,6.20
2023-02-06T00:07:48.670Z,6.60
2023-02-06T00:08:21.426Z,6.93
2023-02-06T00:08:54.062Z,6.95
2023-02-06T00:09:26.400Z,7.05
2023-02-06T00:09:58.731Z,7.20
2023-02-06T00:10:31.119Z,6.65
2023-02-06T00:11:05.116Z,6.50
2023-02-06T00:11:37.609Z,7.03
2023-02-06T00:12:10.178Z,6.88
2023-02-06T00:12:42.515Z,7.00
2023-02-06T00:13:14.812Z,6.60
2023-02-06T00:13:47.269Z,7.60
2023-02-06T00:14:19.662Z,6.90
2023-02-06T00:14:52.336Z,7.22
2023-02-06T00:15:24.815Z,5.88
2023-02-06T00:15:57.187Z,6.68
2023-02-06T00:16:31.042Z,7.55
2023-02-06T00:17:03.390Z,6.43
2023-02-06T00:17:36.806Z,7.45
2023-02-06T00:18:09.236Z,7.50
2023-02-06T00:18:41.531Z,7.13
2023-02-06T00:19:13.873Z,7.35
2023-02-06T00:19:46.388Z,7.70
2023-02-06T00:20:18.970Z,7.60
2023-02-06T00:20:51.480Z,7.30
2023-02-06T00:21:25.985Z,7.07
2023-02-06T00:21:58.307Z,6.40
2023-02-06T00:22:31.105Z,7.13
2023-02-06T00:23:03.456Z,7.40
2023-02-06T00:23:35.806Z,7.80
2023-02-06T00:24:08.102Z,6.85
2023-02-06T00:24:43.675Z,7.53
2023-02-06T00:25:16.466Z,7.60
2023-02-06T00:25:48.799Z,7.32
2023-02-06T00:26:21.236Z,7.75
2023-02-06T00:26:53.870Z,7.80
2023-02-06T00:27:26.566Z,6.82
2023-02-06T00:27:58.991Z,6.93
2023-02-06T00:28:31.271Z,8.30
2023-02-06T00:29:03.939Z,7.95
2023-02-06T00:29:36.324Z,8.15
2023-02-06T00:30:08.878Z,7.63
2023-02-06T00:30:41.307Z,7.63
2023-02-06T00:31:14.141Z,7.85
2023-02-06T00:31:46.597Z,7.72
2023-02-06T00:32:19.236Z,7.82
2023-02-06T00:32:51.709Z,7.35
2023-02-06T00:33:24.144Z,7.43
2023-02-06T00:33:56.654Z,7.65
2023-02-06T00:34:29.005Z,7.18
2023-02-06T00:35:01.569Z,8.15
2023-02-06T00:35:34.079Z,7.78
2023-02-06T00:36:06.955Z,7.55
2023-02-06T00:36:39.305Z,7.55
2023-02-06T00:37:11.709Z,7.45
2023-02-06T00:37:44.152Z,7.45
2023-02-06T00:38:16.486Z,8.07
2023-02-06T00:38:50.166Z,7.72
2023-02-06T00:39:22.511Z,7.68
2023-02-06T00:39:55.019Z,7.60
2023-02-06T00:40:27.341Z,7.13
2023-02-06T00:40:59.582Z,7.05
2023-02-06T00:41:32.035Z,7.03
2023-02-06T00:42:04.526Z,7.22
2023-02-06T00:42:36.842Z,7.57
2023-02-06T00:43:09.358Z,7.53
2023-02-06T00:43:43.754Z,7.55
2023-02-06T00:44:16.094Z,7.40
2023-02-06T00:44:48.467Z,8.50
2023-02-06T00:45:20.875Z,8.50
2023-02-06T00:45:53.997Z,7.80
2023-02-06T00:46:27.367Z,7.47
2023-02-06T00:46:59.804Z,8.18
2023-02-06T00:47:34.129Z,8.18
2023-02-06T00:48:06.505Z,9.45
2023-02-06T00:48:38.939Z,8.70
2023-02-06T00:49:11.498Z,8.25
2023-02-06T00:49:43.920Z,9.05
2023-02-06T00:50:16.724Z,9.38
2023-02-06T00:50:49.914Z,9.43
2023-02-06T00:51:22.229Z,9.50
2023-02-06T00:51:54.669Z,8.75
2023-02-06T00:52:27.756Z,8.98
2023-02-06T00:53:00.163Z,9.23
2023-02-06T00:53:32.795Z,9.07
2023-02-06T00:54:05.625Z,9.68
2023-02-06T00:54:38.024Z,9.55
2023-02-06T00:55:10.340Z,9.05
2023-02-06T00:55:42.691Z,8.65
2023-02-06T00:56:15.025Z,8.90
2023-02-06T00:56:47.834Z,8.15
2023-02-06T00:57:20.323Z,8.90
2023-02-06T00:57:52.619Z,8.30
2023-02-06T00:58:24.934Z,9.20
2023-02-06T00:58:57.337Z,8.73
2023-02-06T00:59:29.938Z,8.80
2023-02-06T01:00:05.759Z,8.93
2023-02-06T01:00:38.110Z,8.57
2023-02-06T01:01:10.421Z,9.13
2023-02-06T01:01:44.195Z,9.65
2023-02-06T01:02:16.600Z,9.40
2023-02-06T01:02:48.935Z,9.00
2023-02-06T01:03:21.294Z,8.77
2023-02-06T01:03:53.686Z,8.57
2023-02-06T01:04:26.093Z,8.45
2023-02-06T01:04:58.581Z,9.18
2023-02-06T01:05:30.955Z,8.95
2023-02-06T01:06:03.296Z,8.70
2023-02-06T01:06:35.581Z,8.55
2023-02-06T01:07:07.994Z,9.90
2023-02-06T01:07:40.979Z,9.00
2023-02-06T01:08:13.295Z,9.60
2023-02-06T01:08:46.130Z,9.90
2023-02-06T01:09:18.535Z,10.00
2023-02-06T01:09:51.311Z,10.15
2023-02-06T01:10:23.790Z,9.32
2023-02-06T01:10:56.116Z,9.57
2023-02-06T01:11:28.466Z,10.45
2023-02-06T01:12:00.809Z,9.13
2023-02-06T01:12:34.360Z,9.98
2023-02-06T01:13:06.669Z,10.25
2023-02-06T01:13:39.053Z,10.48
2023-02-06T01:14:11.549Z,11.02
2023-02-06T01:14:44.367Z,10.80
2023-02-06T01:15:17.137Z,10.45
2023-02-06T01:15:51.123Z,10.48
2023-02-06T01:16:24.820Z,9.95
2023-02-06T01:16:58.333Z,10.10
2023-02-06T01:17:31.714Z,10.23
2023-02-06T01:18:04.110Z,10.35
2023-02-06T01:18:36.711Z,10.20
2023-02-06T01:19:09.604Z,11.30
2023-02-06T01:19:41.910Z,10.68
2023-02-06T01:20:15.214Z,11.07
2023-02-06T01:20:47.583Z,10.20
2023-02-06T01:21:23.926Z,10.25
2023-02-06T01:21:56.254Z,11.25
2023-02-06T01:22:28.823Z,10.30
2023-02-06T01:23:01.177Z,10.13
2023-02-06T01:23:33.589Z,10.82
2023-02-06T01:24:06.069Z,9.38
2023-02-06T01:24:38.761Z,9.30
2023-02-06T01:25:11.127Z,11.30
2023-02-06T01:25:44.136Z,10.75
2023-02-06T01:26:17.969Z,13.85
2023-02-06T01:26:50.263Z,12.85
2023-02-06T01:27:25.740Z,12.10
2023-02-06T01:27:58.405Z,12.38
2023-02-06T01:28:30.718Z,11.88
2023-02-06T01:29:03.590Z,12.43
2023-02-06T01:29:36.363Z,12.63
2023-02-06T01:30:09.183Z,14.35
2023-02-06T01:30:41.611Z,14.15
2023-02-06T01:31:40.266Z,14.10
2023-02-06T01:32:12.934Z,14.07
2023-02-06T01:32:45.317Z,14.18
2023-02-06T01:33:20.930Z,13.85
2023-02-06T01:33:53.463Z,13.07
2023-02-06T01:34:25.841Z,14.02
2023-02-06T01:34:58.188Z,13.48
2023-02-06T01:35:30.859Z,13.30
2023-02-06T01:36:03.293Z,14.25
2023-02-06T01:36:35.647Z,13.75
2023-02-06T01:37:07.950Z,14.10
2023-02-06T01:37:40.653Z,12.52
2023-02-06T01:38:13.201Z,13.40
2023-02-06T01:38:45.967Z,12.55
2023-02-06T01:39:18.430Z,12.23
2023-02-06T01:39:50.829Z,11.75
2023-02-06T01:40:23.205Z,13.18
2023-02-06T01:40:59.954Z,12.13
2023-02-06T01:41:32.421Z,11.38
2023-02-06T01:42:05.231Z,12.35
2023-02-06T01:42:38.277Z,12.20
2023-02-06T01:43:19.727Z,11.13
2023-02-06T01:44:07.002Z,10.93
2023-02-06T01:44:39.765Z,9.38
2023-02-06T01:45:17.716Z,9.48
2023-02-06T01:45:50.383Z,9.50
2023-02-06T01:46:22.793Z,8.45
2023-02-06T01:46:56.142Z,8.90
2023-02-06T01:47:28.718Z,9.15
2023-02-06T01:48:06.281Z,9.23
2023-02-06T01:48:43.628Z,8.90
2023-02-06T01:49:20.509Z,7.03
2023-02-06T01:49:52.827Z,8.98
2023-02-06T01:50:25.220Z,8.50
2023-02-06T01:50:59.973Z,8.70
2023-02-06T01:51:32.586Z,8.93
2023-02-06T01:52:08.286Z,9.18
2023-02-06T01:52:40.888Z,8.25
2023-02-06T01:53:16.898Z,9.15
2023-02-06T01:53:51.898Z,8.43
2023-02-06T01:54:24.453Z,7.85
2023-02-06T01:55:02.949Z,8.60
2023-02-06T01:55:38.891Z,8.32
2023-02-06T01:56:11.387Z,8.43
2023-02-06T01:56:48.010Z,9.27
2023-02-06T01:57:21.128Z,9.07
2023-02-06T01:57:54.112Z,8.75
2023-02-06T01:58:28.297Z,8.52
2023-02-06T01:59:03.091Z,8.38
2023-02-06T01:59:36.155Z,8.70
2023-02-06T02:00:10.115Z,7.72
2023-02-06T02:00:45.785Z,7.88
2023-02-06T02:01:19.664Z,6.95
2023-02-06T02:01:52.024Z,8.77
2023-02-06T02:02:25.768Z,7.97
2023-02-06T02:02:59.041Z,8.27
2023-02-06T02:03:32.302Z,8.30
2023-02-06T02:04:07.377Z,8.32
2023-02-06T02:04:39.698Z,9.00
2023-02-06T02:05:12.821Z,8.50
2023-02-06T02:05:46.763Z,7.63
2023-02-06T02:06:21.218Z,7.68
2023-02-06T02:06:58.708Z,9.23
2023-02-06T02:07:36.501Z,8.57
2023-02-06T02:08:15.361Z,7.85
2023-02-06T02:08:49.116Z,8.13
2023-02-06T02:09:22.429Z,7.65
2023-02-06T02:09:54.976Z,7.63
2023-02-06T02:10:31.080Z,7.93
2023-02-06T02:11:05.093Z,8.02
2023-02-06T02:11:39.404Z,8.32
2023-02-06T02:12:12.133Z,6.75
2023-02-06T02:12:44.505Z,8.38
2023-02-06T02:13:17.779Z,7.90
2023-02-06T02:13:51.231Z,7.93
2023-02-06T02:14:24.024Z,8.15
2023-02-06T02:14:57.471Z,8.85
2023-02-06T02:15:52.901Z,8.60
2023-02-06T02:16:37.352Z,9.43
2023-02-06T02:17:13.905Z,9.60
2023-02-06T02:18:11.563Z,8.70
2023-02-06T02:18:55.906Z,8.25
2023-02-06T02:19:47.014Z,9.13
2023-02-06T02:20:39.085Z,7.78
2023-02-06T02:21:20.511Z,8.13
2023-02-06T02:22:09.330Z,9.27
2023-02-06T02:22:45.135Z,8.70
2023-02-06T02:23:20.129Z,8.82
2023-02-06T02:23:57.380Z,10.30
2023-02-06T02:24:54.745Z,10.05
2023-02-06T02:25:40.849Z,10.10
2023-02-06T02:26:36.681Z,10.68
2023-02-06T02:27:24.092Z,10.35
2023-02-06T02:28:02.945Z,10.32
2023-02-06T02:29:01.544Z,9.85
2023-02-06T02:29:47.433Z,9.68
2023-02-06T02:30:38.325Z,10.68
2023-02-06T02:31:27.460Z,8.43
2023-02-06T02:32:23.561Z,8.77
2023-02-06T02:32:59.680Z,8.75
2023-02-06T02:33:37.903Z,8.70
2023-02-06T02:34:30.075Z,7.78
2023-02-06T02:35:12.278Z,8.60
2023-02-06T02:35:50.697Z,8.35
2023-02-06T02:36:26.753Z,8.68
2023-02-06T02:37:15.699Z,10.15
2023-02-06T02:37:56.978Z,8.48
2023-02-06T02:38:29.412Z,8.57
2023-02-06T02:39:20.502Z,9.13
2023-02-06T02:39:59.517Z,9.00
2023-02-06T02:40:55.048Z,9.48
2023-02-06T02:41:27.536Z,7.90
2023-02-06T02:42:15.287Z,9.38
2023-02-06T02:42:57.473Z,8.65
2023-02-06T02:43:30.137Z,8.15
2023-02-06T02:44:07.451Z,9.45
2023-02-06T02:44:58.719Z,9.07
2023-02-06T02:45:43.926Z,9.15
2023-02-06T02:46:31.933Z,8.45
2023-02-06T02:47:07.336Z,8.20
2023-02-06T02:47:43.779Z,8.68
2023-02-06T02:48:19.743Z,8.50
2023-02-06T02:48:55.465Z,8.73
2023-02-06T02:49:29.478Z,8.45
2023-02-06T02:50:03.356Z,8.63
2023-02-06T02:50:36.075Z,7.93
2023-02-06T02:51:09.106Z,8.02
2023-02-06T02:51:42.184Z,7.97
2023-02-06T02:52:15.545Z,8.25
2023-02-06T02:52:48.854Z,8.43
2023-02-06T02:53:21.754Z,9.02
2023-02-06T02:53:56.686Z,7.22
2023-02-06T02:54:29.155Z,8.02
2023-02-06T02:55:01.938Z,8.27
2023-02-06T02:55:35.290Z,7.95
2023-02-06T02:56:23.385Z,8.05
2023-02-06T02:56:58.910Z,7.80
2023-02-06T02:57:32.096Z,7.20
2023-02-06T02:58:07.779Z,8.20
2023-02-06T02:58:40.609Z,8.18
2023-02-06T02:59:35.468Z,8.15
2023-02-06T03:00:08.569Z,7.97
2023-02-06T03:00:44.626Z,7.10
2023-02-06T03:01:20.494Z,7.30
2023-02-06T03:01:56.990Z,8.07
2023-02-06T03:02:32.123Z,7.20
2023-02-06T03:03:06.213Z,7.97
2023-02-06T03:03:40.836Z,7.57
2023-02-06T03:04:16.714Z,7.47
2023-02-06T03:04:56.222Z,8.13
2023-02-06T03:05:29.563Z,7.32
2023-02-06T03:06:26.838Z,6.15
2023-02-06T03:07:04.819Z,7.97
2023-02-06T03:07:58.354Z,7.93
2023-02-06T03:08:33.573Z,8.55
2023-02-06T03:09:27.121Z,7.50
2023-02-06T03:10:02.460Z,8.85
2023-02-06T03:10:35.571Z,8.02
2023-02-06T03:11:15.218Z,7.82
2023-02-06T03:11:54.523Z,8.20
2023-02-06T03:12:45.134Z,8.73
2023-02-06T03:13:28.970Z,8.68
2023-02-06T03:14:12.411Z,9.00
2023-02-06T03:14:48.661Z,8.55
2023-02-06T03:15:31.440Z,8.20
2023-02-06T03:16:11.973Z,8.20
2023-02-06T03:16:56.147Z,9.23
2023-02-06T03:17:31.810Z,8.32
2023-02-06T03:18:16.860Z,9.13
2023-02-06T03:18:54.824Z,9.23
2023-02-06T03:19:31.733Z,8.57
2023-02-06T03:20:05.308Z,8.77
2023-02-06T03:20:38.902Z,8.00
2023-02-06T03:21:13.884Z,8.77
2023-02-06T03:21:47.861Z,7.25
2023-02-06T03:22:21.472Z,8.57
2023-02-06T03:22:55.893Z,8.43
2023-02-06T03:23:31.637Z,8.50
2023-02-06T03:24:08.161Z,8.38
2023-02-06T03:24:40.572Z,8.30
2023-02-06T03:25:14.415Z,8.50
2023-02-06T03:25:48.102Z,7.85
2023-02-06T03:26:22.263Z,8.50
2023-02-06T03:26:59.396Z,8.60
2023-02-06T03:27:32.816Z,8.35
2023-02-06T03:28:07.920Z,7.60
2023-02-06T03:28:43.456Z,8.35
2023-02-06T03:29:16.517Z,8.45
2023-02-06T03:29:50.752Z,8.23
2023-02-06T03:30:24.252Z,8.48
2023-02-06T03:30:57.419Z,9.10
2023-02-06T03:31:34.397Z,8.07
2023-02-06T03:32:26.412Z,8.75
2023-02-06T03:33:01.875Z,7.65
2023-02-06T03:33:36.484Z,8.30
2023-02-06T03:34:22.796Z,8.32
2023-02-06T03:35:04.224Z,7.93
2023-02-06T03:35:37.389Z,7.78
2023-02-06T03:36:17.182Z,8.50
2023-02-06T03:36:50.109Z,8.65
2023-02-06T03:37:23.647Z,8.70
2023-02-06T03:37:55.976Z,8.68
2023-02-06T03:38:28.470Z,9.15
2023-02-06T03:39:00.936Z,8.60
2023-02-06T03:39:33.593Z,9.07
2023-02-06T03:40:07.270Z,8.90
2023-02-06T03:40:41.294Z,9.50
2023-02-06T03:41:15.302Z,8.57
2023-02-06T03:41:48.582Z,8.10
2023-02-06T03:42:22.043Z,7.90
2023-02-06T03:42:56.537Z,8.32
2023-02-06T03:43:29.774Z,8.60
2023-02-06T03:44:03.597Z,8.88
2023-02-06T03:44:38.902Z,8.52
2023-02-06T03:45:31.452Z,7.32
2023-02-06T03:46:05.442Z,8.60
2023-02-06T03:46:40.446Z,8.50
2023-02-06T03:47:14.215Z,9.02
2023-02-06T03:47:47.274Z,8.00
2023-02-06T03:48:24.645Z,8.65
2023-02-06T03:48:58.787Z,9.00
2023-02-06T03:49:32.435Z,8.95
2023-02-06T03:50:06.977Z,9.75
2023-02-06T03:50:41.782Z,7.95
2023-02-06T03:51:22.397Z,8.98
2023-02-06T03:51:58.154Z,9.55
2023-02-06T03:52:34.020Z,9.20
2023-02-06T03:53:06.825Z,8.75
2023-02-06T03:53:41.161Z,9.02
2023-02-06T03:54:14.795Z,9.88
2023-02-06T03:54:49.475Z,9.75
2023-02-06T03:55:23.597Z,8.90
2023-02-06T03:55:58.592Z,9.05
2023-02-06T03:56:43.815Z,9.70
2023-02-06T03:57:19.584Z,8.70
2023-02-06T03:57:54.176Z,9.70
2023-02-06T03:58:26.604Z,8.52
2023-02-06T03:58:58.995Z,8.15
2023-02-06T03:59:31.714Z,8.43
2023-02-06T04:00:05.129Z,7.88
2023-02-06T04:00:46.171Z,8.52
2023-02-06T04:01:18.854Z,7.68
2023-02-06T04:01:56.237Z,8.70
2023-02-06T04:02:29.093Z,8.88
2023-02-06T04:03:01.735Z,8.93
2023-02-06T04:03:34.166Z,8.27
2023-02-06T04:04:06.788Z,8.45
2023-02-06T04:04:40.637Z,8.85
2023-02-06T04:05:13.355Z,9.27
2023-02-06T04:05:45.768Z,8.40
2023-02-06T04:06:18.226Z,9.02
2023-02-06T04:06:50.592Z,8.65
2023-02-06T04:07:27.046Z,8.82
2023-02-06T04:07:59.537Z,9.35
2023-02-06T04:08:31.900Z,9.60
2023-02-06T04:09:04.297Z,8.75
2023-02-06T04:09:36.689Z,8.88
2023-02-06T04:10:09.194Z,9.63
2023-02-06T04:10:41.495Z,9.35
2023-02-06T04:11:13.879Z,9.02
2023-02-06T04:11:46.260Z,9.55
2023-02-06T04:12:18.796Z,8.82
2023-02-06T04:12:51.062Z,9.27
2023-02-06T04:13:23.484Z,9.00
2023-02-06T04:13:55.838Z,8.70
2023-02-06T04:14:28.142Z,7.80
2023-02-06T04:15:00.555Z,9.68
2023-02-06T04:15:32.996Z,8.80
2023-02-06T04:16:05.512Z,8.98
2023-02-06T04:16:38.017Z,8.93
2023-02-06T04:17:10.773Z,9.40
2023-02-06T04:17:58.965Z,8.93
2023-02-06T04:18:32.263Z,8.23
2023-02-06T04:19:04.574Z,8.93
2023-02-06T04:19:37.069Z,8.95
2023-02-06T04:20:09.730Z,9.02
2023-02-06T04:20:42.085Z,9.68
2023-02-06T04:21:14.667Z,8.63
2023-02-06T04:21:46.952Z,9.70
2023-02-06T04:22:19.265Z,9.35
2023-02-06T04:22:51.989Z,8.75
2023-02-06T04:23:24.473Z,9.10
2023-02-06T04:23:56.777Z,9.77
2023-02-06T04:24:30.932Z,8.40
2023-02-06T04:25:03.418Z,9.48
2023-02-06T04:25:36.339Z,9.85
2023-02-06T04:26:08.830Z,9.10
2023-02-06T04:26:41.331Z,9.65
2023-02-06T04:27:14.248Z,10.15
2023-02-06T04:27:46.583Z,10.38
2023-02-06T04:28:19.135Z,10.05
2023-02-06T04:28:51.701Z,10.88
2023-02-06T04:29:24.217Z,9.32
2023-02-06T04:29:56.557Z,10.20
2023-02-06T04:30:29.058Z,9.70
2023-02-06T04:31:01.820Z,10.40
2023-02-06T04:31:34.615Z,11.13
2023-02-06T04:32:07.005Z,10.00
2023-02-06T04:32:39.719Z,10.65
2023-02-06T04:33:12.087Z,11.57
2023-02-06T04:33:44.826Z,11.35
2023-02-06T04:34:17.644Z,11.23
2023-02-06T04:34:50.138Z,11.10
2023-02-06T04:35:22.524Z,10.50
2023-02-06T04:35:55.092Z,11.75
2023-02-06T04:36:27.368Z,11.07
2023-02-06T04:37:00.311Z,12.40
2023-02-06T04:37:32.819Z,10.48
2023-02-06T04:38:05.226Z,11.02
2023-02-06T04:38:37.719Z,10.60
2023-02-06T04:39:10.012Z,10.82
2023-02-06T04:39:42.490Z,10.20
2023-02-06T04:40:14.821Z,10.48
2023-02-06T04:40:47.326Z,10.20
2023-02-06T04:41:19.758Z,10.57
2023-02-06T04:41:52.199Z,10.65
2023-02-06T04:42:24.567Z,9.88
2023-02-06T04:42:57.031Z,9.48
2023-02-06T04:43:29.512Z,10.00
2023-02-06T04:44:01.860Z,9.43
2023-02-06T04:44:35.170Z,10.30
2023-02-06T04:45:07.767Z,10.07
2023-02-06T04:45:42.030Z,9.38
2023-02-06T04:46:14.392Z,9.93
2023-02-06T04:46:46.925Z,10.32
2023-02-06T04:47:19.242Z,10.60
2023-02-06T04:47:51.836Z,10.73
2023-02-06T04:48:24.223Z,10.13
2023-02-06T04:48:57.055Z,9.95
2023-02-06T04:49:29.328Z,10.60
2023-02-06T04:50:01.593Z,10.63
2023-02-06T04:50:34.899Z,9.88
2023-02-06T04:51:07.303Z,10.40
2023-02-06T04:51:40.175Z,11.18
2023-02-06T04:52:12.640Z,10.52
2023-02-06T04:52:45.175Z,10.75
2023-02-06T04:53:18.038Z,10.02
2023-02-06T04:53:50.553Z,10.32
2023-02-06T04:54:22.886Z,10.15
2023-02-06T04:54:55.292Z,10.48
2023-02-06T04:55:27.907Z,11.38
2023-02-06T04:56:07.232Z,10.68
2023-02-06T04:56:39.574Z,11.05
2023-02-06T04:57:11.945Z,10.68
2023-02-06T04:57:44.236Z,11.13
2023-02-06T04:58:16.815Z,11.85
2023-02-06T04:58:49.133Z,10.35
2023-02-06T04:59:21.604Z,9.80
2023-02-06T04:59:54.105Z,9.48
2023-02-06T05:00:26.384Z,10.07
2023-02-06T05:00:58.768Z,9.65
2023-02-06T05:01:31.173Z,9.57
2023-02-06T05:02:03.747Z,10.60
2023-02-06T05:02:39.890Z,10.35
2023-02-06T05:03:12.373Z,10.05
2023-02-06T05:03:44.833Z,11.30
2023-02-06T05:04:17.312Z,10.90
2023-02-06T05:04:49.664Z,10.93
2023-02-06T05:05:22.117Z,9.25
2023-02-06T05:05:54.692Z,9.32
2023-02-06T05:06:27.017Z,9.75
2023-02-06T05:06:59.489Z,9.52
2023-02-06T05:07:31.875Z,9.93
2023-02-06T05:08:04.234Z,8.93
2023-02-06T05:08:36.681Z,11.02
2023-02-06T05:09:10.014Z,14.07
2023-02-06T05:09:42.408Z,15.35
2023-02-06T05:10:15.404Z,11.32
2023-02-06T05:10:48.251Z,10.75
2023-02-06T05:11:20.632Z,11.20
2023-02-06T05:11:52.994Z,10.68
2023-02-06T05:12:25.484Z,10.45
2023-02-06T05:12:58.197Z,10.40
2023-02-06T05:13:31.537Z,15.63
2023-02-06T05:14:03.981Z,26.58
2023-02-06T05:14:36.479Z,23.50
2023-02-06T05:15:09.081Z,18.13
2023-02-06T05:15:41.453Z,17.13
2023-02-06T05:16:15.145Z,16.63
2023-02-06T05:16:47.900Z,13.13
2023-02-06T05:17:20.195Z,11.88
2023-02-06T05:17:52.514Z,12.65
2023-02-06T05:18:24.801Z,14.18
2023-02-06T05:18:57.398Z,15.90
2023-02-06T05:19:29.880Z,14.10
2023-02-06T05:20:02.846Z,13.77
2023-02-06T05:20:35.286Z,12.90
2023-02-06T05:21:08.084Z,17.90
2023-02-06T05:21:40.553Z,14.13
2023-02-06T05:22:13.089Z,14.43
2023-02-06T05:22:45.748Z,15.38
2023-02-06T05:23:18.118Z,13.77
2023-02-06T05:23:50.658Z,13.45
2023-02-06T05:24:23.031Z,13.55
2023-02-06T05:24:55.338Z,11.73
2023-02-06T05:25:28.113Z,12.57
2023-02-06T05:26:00.765Z,11.73
2023-02-06T05:26:33.115Z,11.45
2023-02-06T05:27:05.936Z,11.30
2023-02-06T05:27:38.144Z,10.88
2023-02-06T05:28:10.692Z,9.95
2023-02-06T05:28:43.438Z,9.60
2023-02-06T05:29:16.010Z,10.23
2023-02-06T05:29:48.473Z,10.20
2023-02-06T05:30:20.833Z,10.43
2023-02-06T05:30:53.288Z,10.35
2023-02-06T05:31:25.847Z,10.52
2023-02-06T05:31:58.521Z,9.70
2023-02-06T05:32:30.924Z,9.63
2023-02-06T05:33:03.309Z,9.55
2023-02-06T05:33:35.622Z,9.98
2023-02-06T05:34:09.623Z,9.50
2023-02-06T05:34:41.858Z,9.57
2023-02-06T05:35:14.296Z,9.27
2023-02-06T05:35:46.703Z,9.57
2023-02-06T05:36:19.475Z,9.23
2023-02-06T05:36:51.803Z,9.27
2023-02-06T05:37:24.202Z,8.93
2023-02-06T05:37:57.383Z,9.50
2023-02-06T05:38:29.793Z,9.82
2023-02-06T05:39:02.078Z,9.68
2023-02-06T05:39:34.363Z,9.80
2023-02-06T05:40:07.084Z,10.82
2023-02-06T05:40:39.340Z,10.88
2023-02-06T05:41:11.667Z,12.60
2023-02-06T05:41:44.367Z,13.88
2023-02-06T05:42:16.652Z,15.75
2023-02-06T05:42:49.114Z,14.07
2023-02-06T05:43:21.647Z,15.55
2023-02-06T05:43:54.156Z,16.42
2023-02-06T05:44:26.461Z,14.43
2023-02-06T05:44:58.969Z,14.85
2023-02-06T05:45:31.696Z,16.60
2023-02-06T05:46:04.535Z,15.15
2023-02-06T05:46:38.022Z,15.15
2023-02-06T05:47:10.367Z,15.00
2023-02-06T05:47:42.831Z,15.32
2023-02-06T05:48:15.031Z,13.77
2023-02-06T05:48:47.356Z,14.55
2023-02-06T05:49:19.774Z,13.25
2023-02-06T05:49:52.433Z,12.95
2023-02-06T05:50:24.718Z,12.65
2023-02-06T05:50:58.705Z,13.20
2023-02-06T05:51:31.080Z,12.52
2023-02-06T05:52:03.821Z,12.13
2023-02-06T05:52:36.301Z,12.35
2023-02-06T05:53:08.696Z,12.45
2023-02-06T05:53:40.979Z,12.80
2023-02-06T05:54:15.498Z,11.63
2023-02-06T05:54:47.964Z,12.00
2023-02-06T05:55:20.298Z,11.75
2023-02-06T05:55:52.684Z,11.95
2023-02-06T05:56:25.063Z,11.90
2023-02-06T05:56:58.512Z,11.73
2023-02-06T05:57:31.292Z,11.30
2023-02-06T05:58:06.066Z,11.40
2023-02-06T05:58:38.514Z,12.00
2023-02-06T05:59:10.895Z,11.85
2023-02-06T05:59:43.184Z,12.10
2023-02-06T06:00:15.832Z,11.88
2023-02-06T06:00:48.191Z,12.00
2023-02-06T06:01:20.519Z,11.18
2023-02-06T06:01:52.964Z,13.32
2023-02-06T06:02:25.473Z,12.10
2023-02-06T06:02:57.853Z,12.68
2023-02-06T06:03:33.086Z,12.27
2023-02-06T06:04:05.858Z,14.00
2023-02-06T06:04:38.219Z,13.45
2023-02-06T06:05:10.671Z,12.65
2023-02-06T06:05:43.065Z,11.88
2023-02-06T06:06:15.545Z,11.65
2023-02-06T06:06:48.217Z,11.73
2023-02-06T06:07:20.703Z,12.05
2023-02-06T06:07:53.124Z,12.30
2023-02-06T06:08:25.629Z,12.73
2023-02-06T06:08:58.035Z,12.73
2023-02-06T06:09:30.348Z,12.63
2023-02-06T06:10:03.107Z,11.98
2023-02-06T06:10:35.549Z,11.18
2023-02-06T06:11:08.316Z,11.38
2023-02-06T06:11:40.736Z,11.98
2023-02-06T06:12:13.049Z,11.30
2023-02-06T06:12:45.340Z,11.18
2023-02-06T06:13:17.858Z,10.93
2023-02-06T06:13:50.220Z,11.13
2023-02-06T06:14:22.941Z,11.32
2023-02-06T06:14:55.274Z,10.57
2023-02-06T06:15:27.615Z,10.95
2023-02-06T06:16:00.005Z,10.77
2023-02-06T06:16:32.383Z,11.80
2023-02-06T06:17:04.673Z,11.38
2023-02-06T06:17:37.188Z,11.63
2023-02-06T06:18:09.571Z,11.25
2023-02-06T06:18:41.967Z,11.50
2023-02-06T06:19:14.364Z,11.90
2023-02-06T06:19:46.668Z,12.00
2023-02-06T06:20:19.195Z,12.27
2023-02-06T06:20:52.565Z,12.82
2023-02-06T06:21:24.960Z,12.07
2023-02-06T06:21:58.324Z,12.27
2023-02-06T06:22:30.855Z,12.32
2023-02-06T06:23:03.175Z,11.98
2023-02-06T06:23:35.509Z,13.32
2023-02-06T06:24:07.901Z,14.20
2023-02-06T06:24:40.272Z,13.57
2023-02-06T06:25:13.061Z,13.50
2023-02-06T06:25:48.597Z,13.07
2023-02-06T06:26:20.949Z,13.35
2023-02-06T06:26:53.489Z,14.23
2023-02-06T06:27:25.975Z,14.55
2023-02-06T06:27:58.284Z,13.95
2023-02-06T06:28:30.656Z,14.73
2023-02-06T06:29:03.581Z,15.63
2023-02-06T06:29:36.346Z,14.63
2023-02-06T06:30:09.136Z,16.35
2023-02-06T06:30:41.911Z,17.05
2023-02-06T06:31:15.465Z,16.65
2023-02-06T06:31:48.033Z,17.20
2023-02-06T06:32:20.425Z,16.58
2023-02-06T06:32:53.333Z,16.85
2023-02-06T06:33:25.885Z,18.00
2023-02-06T06:33:58.248Z,17.05
2023-02-06T06:34:30.666Z,16.98
2023-02-06T06:35:03.311Z,15.48
2023-02-06T06:35:35.858Z,16.58
2023-02-06T06:36:09.547Z,15.75
2023-02-06T06:36:42.227Z,15.85
2023-02-06T06:37:14.570Z,17.05
2023-02-06T06:37:47.001Z,16.80
2023-02-06T06:38:19.294Z,16.77
2023-02-06T06:38:51.786Z,16.75
2023-02-06T06:39:24.127Z,18.38
2023-02-06T06:39:56.424Z,19.10
2023-02-06T06:40:28.765Z,22.52
2023-02-06T06:41:01.247Z,21.77
2023-02-06T06:41:33.662Z,23.60
2023-02-06T06:42:06.233Z,27.58
2023-02-06T06:42:38.689Z,26.80
2023-02-06T06:43:11.206Z,26.98
2023-02-06T06:43:43.527Z,23.75
2023-02-06T06:44:15.848Z,22.13
2023-02-06T06:44:48.127Z,20.02
2023-02-06T06:45:20.569Z,20.55
2023-02-06T06:45:53.002Z,19.55
2023-02-06T06:46:25.402Z,19.23
2023-02-06T06:46:57.789Z,17.95
2023-02-06T06:47:30.220Z,18.23
2023-02-06T06:48:02.709Z,15.55
2023-02-06T06:48:36.712Z,15.55
2023-02-06T06:49:09.196Z,15.43
2023-02-06T06:49:41.516Z,14.30
2023-02-06T06:50:14.055Z,15.20
2023-02-06T06:50:46.769Z,14.65
2023-02-06T06:51:19.104Z,13.27
2023-02-06T06:51:51.437Z,14.05
2023-02-06T06:52:25.525Z,15.35
2023-02-06T06:52:58.150Z,14.27
2023-02-06T06:53:30.537Z,14.48
2023-02-06T06:54:03.054Z,15.30
2023-02-06T06:54:35.372Z,14.27
2023-02-06T06:55:07.820Z,15.07
2023-02-06T06:55:40.175Z,15.73
2023-02-06T06:56:13.555Z,16.00
2023-02-06T06:56:46.034Z,14.70
2023-02-06T06:57:18.333Z,17.08
2023-02-06T06:57:50.629Z,16.17
2023-02-06T06:58:23.101Z,15.35
2023-02-06T06:58:55.831Z,14.70
2023-02-06T06:59:28.312Z,14.98
2023-02-06T07:00:00.794Z,14.93
2023-02-06T07:00:33.515Z,15.35
2023-02-06T07:01:06.218Z,14.55
2023-02-06T07:01:38.660Z,14.35
2023-02-06T07:02:11.554Z,14.13
2023-02-06T07:02:43.926Z,14.73
2023-02-06T07:03:16.360Z,14.38
2023-02-06T07:03:48.797Z,14.20
2023-02-06T07:04:21.501Z,14.82
2023-02-06T07:04:54.246Z,13.73
2023-02-06T07:05:26.630Z,13.38
2023-02-06T07:05:58.949Z,13.55
2023-02-06T07:06:31.317Z,13.40
2023-02-06T07:07:03.934Z,12.15
2023-02-06T07:07:36.780Z,13.30
2023-02-06T07:08:09.190Z,13.02
2023-02-06T07:08:42.281Z,13.45
2023-02-06T07:09:14.866Z,13.57
2023-02-06T07:09:47.284Z,12.45
2023-02-06T07:10:19.803Z,13.27
2023-02-06T07:10:52.211Z,12.18
2023-02-06T07:11:26.439Z,12.75
2023-02-06T07:11:58.932Z,12.38
2023-02-06T07:12:31.455Z,12.45
2023-02-06T07:13:04.029Z,11.80
2023-02-06T07:13:36.843Z,16.95
2023-02-06T07:14:09.157Z,15.52
2023-02-06T07:14:41.522Z,14.52
2023-02-06T07:15:14.299Z,13.45
2023-02-06T07:15:46.693Z,16.13
2023-02-06T07:16:19.115Z,16.92
2023-02-06T07:16:51.514Z,17.45
2023-02-06T07:17:23.904Z,18.55
2023-02-06T07:17:56.557Z,17.95
2023-02-06T07:18:28.971Z,16.85
2023-02-06T07:19:01.293Z,16.45
2023-02-06T07:19:33.839Z,16.65
2023-02-06T07:20:06.440Z,15.50
2023-02-06T07:20:38.830Z,16.10
2023-02-06T07:21:11.450Z,16.42
2023-02-06T07:21:43.870Z,16.77
2023-02-06T07:22:16.178Z,17.85
2023-02-06T07:22:50.510Z,16.27
2023-02-06T07:23:22.864Z,16.38
2023-02-06T07:23:55.413Z,16.05
2023-02-06T07:24:27.710Z,17.13
2023-02-06T07:25:00.081Z,16.67
2023-02-06T07:25:32.833Z,15.75
2023-02-06T07:26:05.715Z,16.08
2023-02-06T07:26:38.051Z,16.05
2023-02-06T07:27:10.702Z,16.33